Map

Track Data

SID SEASON NUMBER BASIN SUBBASIN NAME ISO_TIME NATURE LAT LON WMO_WIND WMO_PRES WMO_AGENCY TRACK_TYPE DIST2LAND LANDFALL IFLAG USA_AGENCY USA_ATCF_ID USA_LAT USA_LON USA_RECORD USA_STATUS USA_WIND USA_PRES USA_SSHS USA_R34_NE USA_R34_SE USA_R34_SW USA_R34_NW USA_R50_NE USA_R50_SE USA_R50_SW USA_R50_NW USA_R64_NE USA_R64_SE USA_R64_SW USA_R64_NW USA_POCI USA_ROCI USA_RMW USA_EYE TOKYO_LAT TOKYO_LON TOKYO_GRADE TOKYO_WIND TOKYO_PRES TOKYO_R50_DIR TOKYO_R50_LONG TOKYO_R50_SHORT TOKYO_R30_DIR TOKYO_R30_LONG TOKYO_R30_SHORT TOKYO_LAND CMA_LAT CMA_LON CMA_CAT CMA_WIND CMA_PRES HKO_LAT HKO_LON HKO_CAT HKO_WIND HKO_PRES NEWDELHI_LAT NEWDELHI_LON NEWDELHI_GRADE NEWDELHI_WIND NEWDELHI_PRES NEWDELHI_CI NEWDELHI_DP NEWDELHI_POCI REUNION_LAT REUNION_LON REUNION_TYPE REUNION_WIND REUNION_PRES REUNION_TNUM REUNION_CI REUNION_RMW REUNION_R34_NE REUNION_R34_SE REUNION_R34_SW REUNION_R34_NW REUNION_R50_NE REUNION_R50_SE REUNION_R50_SW REUNION_R50_NW REUNION_R64_NE REUNION_R64_SE REUNION_R64_SW REUNION_R64_NW BOM_LAT BOM_LON BOM_TYPE BOM_WIND BOM_PRES BOM_TNUM BOM_CI BOM_RMW BOM_R34_NE BOM_R34_SE BOM_R34_SW BOM_R34_NW BOM_R50_NE BOM_R50_SE BOM_R50_SW BOM_R50_NW BOM_R64_NE BOM_R64_SE BOM_R64_SW BOM_R64_NW BOM_ROCI BOM_POCI BOM_EYE BOM_POS_METHOD BOM_PRES_METHOD NADI_LAT NADI_LON NADI_CAT NADI_WIND NADI_PRES WELLINGTON_LAT WELLINGTON_LON WELLINGTON_WIND WELLINGTON_PRES DS824_LAT DS824_LON DS824_STAGE DS824_WIND DS824_PRES TD9636_LAT TD9636_LON TD9636_STAGE TD9636_WIND TD9636_PRES TD9635_LAT TD9635_LON TD9635_WIND TD9635_PRES TD9635_ROCI NEUMANN_LAT NEUMANN_LON NEUMANN_CLASS NEUMANN_WIND NEUMANN_PRES MLC_LAT MLC_LON MLC_CLASS MLC_WIND MLC_PRES USA_GUST BOM_GUST BOM_GUST_PER REUNION_GUST REUNION_GUST_PER USA_SEAHGT USA_SEARAD_NE USA_SEARAD_SE USA_SEARAD_SW USA_SEARAD_NW STORM_SPEED STORM_DIR
1872021S19053 1872 2 SI MM NOT_NAMED 1872-01-21 06:00:00 NR -19.1000 52.6000 main 351 297 __________O___ -1 -19.1000 52.6000 7 16 238
1872021S19053 1872 2 SI MM NOT_NAMED 1872-01-21 09:00:00 NR -19.5247 51.8835 main 297 242 __________P___ -1 -19.5247 51.8835 7 16 237
1872021S19053 1872 2 SI MM NOT_NAMED 1872-01-21 12:00:00 NR -19.9683 51.1922 main 246 193 __________P___ -1 -19.9683 51.1922 7 16 233
1872021S19053 1872 2 SI MM NOT_NAMED 1872-01-21 15:00:00 NR -20.4526 50.5547 main 195 160 __________P___ -1 -20.4526 50.5547 7 15 227
1872021S19053 1872 2 SI MM NOT_NAMED 1872-01-21 18:00:00 NR -21.0000 50.0000 main 160 134 __________O___ -1 -21.0000 50.0000 7 15 219
1872021S19053 1872 2 SI MM NOT_NAMED 1872-01-21 21:00:00 NR -21.6213 49.5506 main 136 112 __________P___ -1 -21.6213 49.5506 7 15 210
1872021S19053 1872 2 SI MM NOT_NAMED 1872-01-22 00:00:00 NR -22.2787 49.2053 main 117 112 __________P___ -1 -22.2787 49.2053 7 14 203
1872021S19053 1872 2 SI MM NOT_NAMED 1872-01-22 03:00:00 NR -22.9217 48.9572 main 121 111 __________P___ -1 -22.9217 48.9572 7 13 197
1872021S19053 1872 2 SI MM NOT_NAMED 1872-01-22 06:00:00 NR -23.5000 48.8000 main 112 107 __________O___ -1 -23.5000 48.8000 7 11 194
1872021S19053 1872 2 SI MM NOT_NAMED 1872-01-22 09:00:00 NR -23.9423 48.6881 main 116 116 __________P___ -1 -23.9423 48.6881 7 8 189
1872021S19053 1872 2 SI MM NOT_NAMED 1872-01-22 12:00:00 NR -24.3169 48.6637 main 126 126 __________P___ -1 -24.3169 48.6637 7 7 0
1872021S19053 1872 2 SI MM NOT_NAMED 1872-01-22 15:00:00 NR -24.6581 48.7075 main 142 142 __________P___ -1 -24.6581 48.7075 7 7 170
1872021S19053 1872 2 SI MM NOT_NAMED 1872-01-22 18:00:00 NR -25.0000 48.8000 main 161 161 __________O___ -1 -25.0000 48.8000 7 7 168
1872021S19053 1872 2 SI MM NOT_NAMED 1872-01-22 21:00:00 NR -25.3804 48.8789 main 186 186 __________P___ -1 -25.3804 48.8789 7 8 167
1872021S19053 1872 2 SI MM NOT_NAMED 1872-01-23 00:00:00 NR -25.7697 49.0035 main 210 210 __________P___ -1 -25.7697 49.0035 7 8 161
1872021S19053 1872 2 SI MM NOT_NAMED 1872-01-23 03:00:00 NR -26.1741 49.1763 main 249 249 __________P___ -1 -26.1741 49.1763 7 9 157
1872021S19053 1872 2 SI MM NOT_NAMED 1872-01-23 06:00:00 NR -26.6000 49.4000 main 291 291 __________O___ -1 -26.6000 49.4000 7 10 154
1872021S19053 1872 2 SI MM NOT_NAMED 1872-01-23 09:00:00 NR -27.0738 49.6660 main 349 349 __________P___ -1 -27.0738 49.6660 7 11 152
1872021S19053 1872 2 SI MM NOT_NAMED 1872-01-23 12:00:00 NR -27.5651 49.9817 main 408 408 __________P___ -1 -27.5651 49.9817 7 11 149
1872021S19053 1872 2 SI MM NOT_NAMED 1872-01-23 15:00:00 NR -28.0488 50.3318 main 460 460 __________P___ -1 -28.0488 50.3318 7 11 146
1872021S19053 1872 2 SI MM NOT_NAMED 1872-01-23 18:00:00 NR -28.5000 50.7000 main 527 527 __________O___ -1 -28.5000 50.7000 7 11 143
1872021S19053 1872 2 SI MM NOT_NAMED 1872-01-23 21:00:00 NR -28.9006 51.0726 main 587 587 __________P___ -1 -28.9006 51.0726 7 10 139
1872021S19053 1872 2 SI MM NOT_NAMED 1872-01-24 00:00:00 NR -29.2581 51.4467 main 639 639 __________P___ -1 -29.2581 51.4467 7 9 136
1872021S19053 1872 2 SI MM NOT_NAMED 1872-01-24 03:00:00 NR -29.5866 51.8224 main 690 690 __________P___ -1 -29.5866 51.8224 7 9 134
1872021S19053 1872 2 SI MM NOT_NAMED 1872-01-24 06:00:00 NR -29.9000 52.2000 main 741 __________O___ -1 -29.9000 52.2000 7 9 134

About IBTrACS Database

This database is a web-friendly format of International Best Track Archive for Climate Stewardship (IBTrACS), a global best track data archive curated by NOAA dating back to 1842.

Updated: 2021-10-27